Aeroporto :
LOGIN :

Iscrizione | Disclaimer

   EN    FR    IT 

 










Sommario :    VFR   VFR Marginale   IFR   IFR Intensivo   IFR Molto Intensivo
Visibilità : 
Base nubi : 
>= 8 km
>= 3000ft
5 / 8 km
1000 / 3000 ft
1500m / 5 km
500 / 1000 ft
800 / 1500m
200 / 500 ft
< 800m
< 200 ft
Simboli :   Temporali  Nebbia  Neve Forte  Precipitazioni Forti  Vento > 20 kt
SIGMETs :   Varie  Temporali  Ghiacco  Turbolenza  Onda orograficha  Ceneri Vulcaniche






- Altitudine del aeroporto : 502 ft
- Codice IATA : ORK


EICK - Cork

ULTIMO METAR :
  • 120030Z 29017KT 9999 FEW018 SCT060 04/01 Q1007 NOSIG

METARs OBSOLETI :
  • 120000Z 28012KT 9999 FEW018CB SCT070 04/02 Q1007 NOSIG
  • 112330Z 27014KT 9999 FEW018 04/01 Q1007 NOSIG
  • 112300Z 26011KT 9999 -SHRA FEW018 SCT035 04/02 Q1007 NOSIG
  • 112230Z 27013KT 9999 FEW018 SCT070 04/02 Q1007 NOSIG
  • 112200Z 26008KT 9999 -SHRA FEW018 SCT025 BKN070 03/02 Q1007 NOSIG
  • 112130Z 28017KT 9999 FEW018CB SCT023 BKN070 04/02 Q1007 NOSIG

TAF TAF EICK
Valido dal 12 a 00 ore il 13 a 00 ore UTC


112300Z 1200/1224 28012KT 9999 FEW020 SCT035
TEMPO 1200/1206 -SHRA FEW018CB
BECMG 1208/1210 32013KT
TEMPO 1211/1215 32015G25KT
BECMG 1216/1218 29010KT



MetMap, La meteo Aeronautica in un colpo d'occhio ! - Copyright ORBIFLY Dicembre 2007 - Disclaimer

ORBIFLY MET'MAP TEAM :

Programmazione e sviluppo : Alexandra Zaïnal
Concezione e sviluppo : Baudouin d'Aumeries
Co-Programmazione e sviluppo : Marc-Olivier Méhu
Supporto tecnico e logistico : Manuel Goepfert
Aiuto per la traduzione : Arnaldo La Scala

Contatto : metmap@orbifly.com




FONTI E CREDITI :

   NOAA